HUN22 LHBP-EKCH
Flight info
| Callsign | HUN22 |
|---|---|
| Flight time | 1h 38m |
| Altitude | 38000 |
| Route | BADOV DCT MAVOR DCT KATQA DCT LATAG DCT ROVEK DCT BINKA M602 PENET T298 MONAK |
| Aircraft | A21N/M-SDE2E3FGHIJ1RWXY/LB1 |
Departure
| Time | 2026-04-25 05:08 |
|---|---|
| Airport | Budapest Liszt Ferenc International Airport (LHBP) |
Arrival
| Time | 2026-04-25 06:46 |
|---|---|
| Airport | Copenhagen Kastrup Airport (EKCH) |
| Time | Latitude | Longitude | Altitude | Speed | Heading |
|---|---|---|---|---|---|
| 2026-04-25 04:53 | 47.43415 | 19.26122 | 474 ft | 0 kts | 131° |
| 2026-04-25 05:00 | 47.43418 | 19.26117 | 474 ft | 2 kts | 131° |
| 2026-04-25 05:00 | 47.43428 | 19.26100 | 474 ft | 2 kts | 131° |
| 2026-04-25 05:00 | 47.43438 | 19.26084 | 474 ft | 2 kts | 131° |
| 2026-04-25 05:01 | 47.43450 | 19.26070 | 474 ft | 2 kts | 156° |
| 2026-04-25 05:01 | 47.43464 | 19.26063 | 474 ft | 2 kts | 173° |
| 2026-04-25 05:01 | 47.43479 | 19.26064 | 474 ft | 2 kts | 192° |
| 2026-04-25 05:01 | 47.43493 | 19.26071 | 475 ft | 2 kts | 211° |
| 2026-04-25 05:02 | 47.43500 | 19.26079 | 475 ft | 1 kts | 222° |
| 2026-04-25 05:02 | 47.43504 | 19.26085 | 475 ft | 0 kts | 223° |
| 2026-04-25 05:02 | 47.43504 | 19.26084 | 475 ft | 0 kts | 223° |
| 2026-04-25 05:04 | 47.43494 | 19.26071 | 475 ft | 3 kts | 223° |
| 2026-04-25 05:04 | 47.43473 | 19.26041 | 474 ft | 5 kts | 223° |
| 2026-04-25 05:04 | 47.43436 | 19.25992 | 473 ft | 8 kts | 223° |
| 2026-04-25 05:04 | 47.43437 | 19.25910 | 472 ft | 9 kts | 299° |
| 2026-04-25 05:05 | 47.43476 | 19.25828 | 472 ft | 10 kts | 300° |
| 2026-04-25 05:05 | 47.43521 | 19.25739 | 472 ft | 11 kts | 313° |
| 2026-04-25 05:05 | 47.43528 | 19.25637 | 471 ft | 12 kts | 232° |
| 2026-04-25 05:05 | 47.43460 | 19.25540 | 468 ft | 15 kts | 223° |
| 2026-04-25 05:06 | 47.43373 | 19.25424 | 463 ft | 18 kts | 222° |
| 2026-04-25 05:06 | 47.43276 | 19.25296 | 458 ft | 20 kts | 223° |
| 2026-04-25 05:06 | 47.43191 | 19.25182 | 453 ft | 13 kts | 222° |
| 2026-04-25 05:06 | 47.43126 | 19.25095 | 450 ft | 14 kts | 222° |
| 2026-04-25 05:07 | 47.43095 | 19.24958 | 446 ft | 16 kts | 295° |
| 2026-04-25 05:07 | 47.43183 | 19.24806 | 444 ft | 29 kts | 312° |
| 2026-04-25 05:07 | 47.43498 | 19.24295 | 436 ft | 104 kts | 312° |
| 2026-04-25 05:07 | 47.44129 | 19.23271 | 443 ft | 164 kts | 312° |
| 2026-04-25 05:08 | 47.44941 | 19.21957 | 929 ft | 175 kts | 312° |
| 2026-04-25 05:08 | 47.45745 | 19.20661 | 1763 ft | 172 kts | 312° |
| 2026-04-25 05:08 | 47.46535 | 19.19390 | 2570 ft | 171 kts | 312° |
| 2026-04-25 05:08 | 47.47359 | 19.18058 | 3040 ft | 186 kts | 312° |
| 2026-04-25 05:09 | 47.48270 | 19.16622 | 3492 ft | 202 kts | 315° |
| 2026-04-25 05:09 | 47.49385 | 19.15148 | 3866 ft | 226 kts | 320° |
| 2026-04-25 05:09 | 47.50634 | 19.13631 | 4420 ft | 242 kts | 320° |
| 2026-04-25 05:09 | 47.51949 | 19.12044 | 5271 ft | 246 kts | 320° |
| 2026-04-25 05:10 | 47.53267 | 19.10452 | 6103 ft | 248 kts | 320° |
| 2026-04-25 05:10 | 47.54589 | 19.08853 | 6658 ft | 249 kts | 321° |
| 2026-04-25 05:10 | 47.55949 | 19.07206 | 7162 ft | 255 kts | 321° |
| 2026-04-25 05:10 | 47.57293 | 19.05575 | 8024 ft | 256 kts | 321° |
| 2026-04-25 05:11 | 47.58675 | 19.03897 | 8879 ft | 257 kts | 321° |
| 2026-04-25 05:11 | 47.60056 | 19.02221 | 9645 ft | 261 kts | 321° |
| 2026-04-25 05:11 | 47.61446 | 19.00537 | 10388 ft | 265 kts | 322° |
| 2026-04-25 05:12 | 47.65057 | 18.98643 | 11145 ft | 301 kts | 358° |
| 2026-04-25 05:12 | 47.67193 | 18.99214 | 11461 ft | 326 kts | 17° |
| 2026-04-25 05:12 | 47.69194 | 19.01045 | 11824 ft | 349 kts | 37° |
| 2026-04-25 05:12 | 47.70957 | 19.03498 | 12513 ft | 353 kts | 39° |
| 2026-04-25 05:13 | 47.72756 | 19.06008 | 13248 ft | 356 kts | 39° |
| 2026-04-25 05:13 | 47.74571 | 19.08529 | 13907 ft | 360 kts | 39° |
| 2026-04-25 05:13 | 47.76532 | 19.10771 | 14520 ft | 358 kts | 24° |
| 2026-04-25 05:13 | 47.78872 | 19.11893 | 15162 ft | 354 kts | 5° |
| 2026-04-25 05:14 | 47.81307 | 19.11792 | 15791 ft | 353 kts | 347° |
| 2026-04-25 05:14 | 47.83578 | 19.10523 | 16388 ft | 354 kts | 329° |
| 2026-04-25 05:14 | 47.85473 | 19.08230 | 16974 ft | 357 kts | 314° |
| 2026-04-25 05:15 | 47.88888 | 19.02794 | 18173 ft | 364 kts | 313° |
| 2026-04-25 05:15 | 47.90629 | 19.00009 | 18750 ft | 367 kts | 313° |
| 2026-04-25 05:15 | 47.92372 | 18.97222 | 19307 ft | 370 kts | 313° |
| 2026-04-25 05:15 | 47.94125 | 18.94415 | 19873 ft | 373 kts | 313° |
| 2026-04-25 05:16 | 47.95878 | 18.91612 | 20437 ft | 375 kts | 313° |
| 2026-04-25 05:16 | 47.97645 | 18.88780 | 20975 ft | 377 kts | 313° |
| 2026-04-25 05:16 | 47.99432 | 18.85914 | 21505 ft | 380 kts | 313° |
| 2026-04-25 05:16 | 48.01232 | 18.83025 | 22017 ft | 382 kts | 313° |
| 2026-04-25 05:17 | 48.03051 | 18.80125 | 22526 ft | 385 kts | 313° |
| 2026-04-25 05:17 | 48.04918 | 18.77213 | 23014 ft | 387 kts | 314° |
| 2026-04-25 05:17 | 48.06776 | 18.74325 | 23462 ft | 390 kts | 314° |
| 2026-04-25 05:17 | 48.08646 | 18.71410 | 23922 ft | 392 kts | 314° |
| 2026-04-25 05:18 | 48.10553 | 18.68433 | 24376 ft | 394 kts | 313° |
| 2026-04-25 05:18 | 48.12447 | 18.65467 | 24834 ft | 396 kts | 313° |
| 2026-04-25 05:18 | 48.14346 | 18.62490 | 25290 ft | 397 kts | 313° |
| 2026-04-25 05:18 | 48.16268 | 18.59473 | 25731 ft | 399 kts | 313° |
| 2026-04-25 05:19 | 48.18180 | 18.56467 | 26147 ft | 401 kts | 313° |
| 2026-04-25 05:19 | 48.20095 | 18.53451 | 26432 ft | 405 kts | 313° |
| 2026-04-25 05:19 | 48.22054 | 18.50363 | 26735 ft | 408 kts | 313° |
| 2026-04-25 05:19 | 48.24007 | 18.47279 | 27075 ft | 411 kts | 313° |
| 2026-04-25 05:20 | 48.25962 | 18.44192 | 27441 ft | 412 kts | 313° |
| 2026-04-25 05:20 | 48.27956 | 18.41038 | 27800 ft | 413 kts | 313° |
| 2026-04-25 05:20 | 48.29935 | 18.37904 | 28127 ft | 415 kts | 313° |
| 2026-04-25 05:20 | 48.31896 | 18.34794 | 28435 ft | 416 kts | 312° |
| 2026-04-25 05:21 | 48.33897 | 18.31614 | 28877 ft | 415 kts | 312° |
| 2026-04-25 05:21 | 48.35842 | 18.28521 | 29377 ft | 412 kts | 312° |
| 2026-04-25 05:21 | 48.37796 | 18.25413 | 29858 ft | 409 kts | 312° |
| 2026-04-25 05:21 | 48.39738 | 18.22319 | 30301 ft | 407 kts | 312° |
| 2026-04-25 05:22 | 48.41674 | 18.19228 | 30707 ft | 406 kts | 312° |
| 2026-04-25 05:22 | 48.43609 | 18.16136 | 31086 ft | 405 kts | 312° |
| 2026-04-25 05:22 | 48.45539 | 18.13049 | 31472 ft | 403 kts | 312° |
| 2026-04-25 05:22 | 48.47448 | 18.09990 | 31850 ft | 402 kts | 312° |
| 2026-04-25 05:23 | 48.49350 | 18.06943 | 32193 ft | 401 kts | 312° |
| 2026-04-25 05:23 | 48.51257 | 18.03879 | 32511 ft | 400 kts | 312° |
| 2026-04-25 05:23 | 48.53159 | 18.00824 | 32807 ft | 400 kts | 312° |
| 2026-04-25 05:23 | 48.55046 | 17.97788 | 33109 ft | 399 kts | 312° |
| 2026-04-25 05:24 | 48.56922 | 17.94766 | 33405 ft | 398 kts | 312° |
| 2026-04-25 05:24 | 48.58813 | 17.91717 | 33711 ft | 397 kts | 311° |
| 2026-04-25 05:24 | 48.60682 | 17.88698 | 33979 ft | 396 kts | 311° |
| 2026-04-25 05:24 | 48.62563 | 17.85657 | 34227 ft | 396 kts | 311° |
| 2026-04-25 05:25 | 48.64445 | 17.82611 | 34496 ft | 395 kts | 311° |
| 2026-04-25 05:25 | 48.66304 | 17.79597 | 34796 ft | 393 kts | 311° |
| 2026-04-25 05:25 | 48.68158 | 17.76590 | 35083 ft | 392 kts | 311° |
| 2026-04-25 05:25 | 48.70014 | 17.73574 | 35370 ft | 390 kts | 311° |
| 2026-04-25 05:26 | 48.71858 | 17.70573 | 35630 ft | 389 kts | 311° |
| 2026-04-25 05:26 | 48.73682 | 17.67598 | 35855 ft | 389 kts | 311° |
| 2026-04-25 05:26 | 48.75526 | 17.64592 | 36059 ft | 388 kts | 311° |
| 2026-04-25 05:26 | 48.77346 | 17.61623 | 36243 ft | 388 kts | 311° |
| 2026-04-25 05:27 | 48.79187 | 17.58612 | 36439 ft | 387 kts | 311° |
| 2026-04-25 05:27 | 48.80999 | 17.55646 | 36629 ft | 387 kts | 311° |
| 2026-04-25 05:27 | 48.82865 | 17.52721 | 36803 ft | 387 kts | 313° |
| 2026-04-25 05:27 | 48.84770 | 17.49881 | 36967 ft | 387 kts | 314° |
| 2026-04-25 05:28 | 48.86689 | 17.47037 | 37141 ft | 386 kts | 314° |
| 2026-04-25 05:28 | 48.88613 | 17.44185 | 37305 ft | 385 kts | 314° |
| 2026-04-25 05:28 | 48.90529 | 17.41336 | 37425 ft | 385 kts | 314° |
| 2026-04-25 05:29 | 48.94362 | 17.35630 | 37591 ft | 387 kts | 314° |
| 2026-04-25 05:29 | 48.98367 | 17.30130 | 37799 ft | 390 kts | 318° |
| 2026-04-25 05:29 | 49.00532 | 17.27669 | 37901 ft | 391 kts | 321° |
| 2026-04-25 05:30 | 49.02820 | 17.25394 | 37980 ft | 393 kts | 325° |
| 2026-04-25 05:30 | 49.07708 | 17.21497 | 38023 ft | 398 kts | 332° |
| 2026-04-25 05:31 | 49.12936 | 17.18479 | 38019 ft | 400 kts | 336° |
| 2026-04-25 05:31 | 49.18213 | 17.15705 | 38017 ft | 400 kts | 336° |
| 2026-04-25 05:32 | 49.23495 | 17.12931 | 38020 ft | 401 kts | 336° |
| 2026-04-25 05:32 | 49.28779 | 17.10150 | 38018 ft | 401 kts | 336° |
| 2026-04-25 05:33 | 49.34099 | 17.07343 | 38017 ft | 401 kts | 336° |
| 2026-04-25 05:33 | 49.39384 | 17.04547 | 38016 ft | 400 kts | 336° |
| 2026-04-25 05:34 | 49.44663 | 17.01749 | 38013 ft | 400 kts | 336° |
| 2026-04-25 05:34 | 49.49920 | 16.98959 | 38009 ft | 399 kts | 336° |
| 2026-04-25 05:35 | 49.55196 | 16.96149 | 38007 ft | 400 kts | 336° |
| 2026-04-25 05:35 | 49.60465 | 16.93337 | 38011 ft | 400 kts | 336° |
| 2026-04-25 05:36 | 49.65734 | 16.90516 | 38014 ft | 401 kts | 336° |
| 2026-04-25 05:36 | 49.71031 | 16.87675 | 37757 ft | 400 kts | 336° |
| 2026-04-25 05:36 | 49.73626 | 16.86284 | 37946 ft | 399 kts | 336° |
| 2026-04-25 05:37 | 49.76257 | 16.84868 | 38002 ft | 400 kts | 336° |
| 2026-04-25 05:37 | 49.81535 | 16.82024 | 38021 ft | 403 kts | 336° |
| 2026-04-25 05:38 | 49.86852 | 16.79155 | 38024 ft | 403 kts | 336° |
| 2026-04-25 05:38 | 49.92144 | 16.76290 | 38024 ft | 402 kts | 336° |
| 2026-04-25 05:39 | 49.97422 | 16.73428 | 38020 ft | 401 kts | 336° |
| 2026-04-25 05:39 | 50.02716 | 16.70550 | 38013 ft | 401 kts | 336° |
| 2026-04-25 05:40 | 50.08004 | 16.67669 | 38006 ft | 402 kts | 336° |
| 2026-04-25 05:40 | 50.13271 | 16.64792 | 38006 ft | 402 kts | 336° |
| 2026-04-25 05:41 | 50.18605 | 16.61874 | 37994 ft | 403 kts | 335° |
| 2026-04-25 05:41 | 50.23898 | 16.58968 | 37991 ft | 402 kts | 335° |
| 2026-04-25 05:42 | 50.29200 | 16.56051 | 37984 ft | 402 kts | 335° |
| 2026-04-25 05:42 | 50.34505 | 16.53126 | 37989 ft | 402 kts | 335° |
| 2026-04-25 05:43 | 50.39826 | 16.50183 | 37989 ft | 403 kts | 335° |
| 2026-04-25 05:43 | 50.45105 | 16.47260 | 37986 ft | 403 kts | 335° |
| 2026-04-25 05:44 | 50.50426 | 16.44304 | 37991 ft | 403 kts | 335° |
| 2026-04-25 05:44 | 50.55717 | 16.41359 | 37992 ft | 403 kts | 335° |
| 2026-04-25 05:45 | 50.61012 | 16.38405 | 37981 ft | 404 kts | 335° |
| 2026-04-25 05:45 | 50.66326 | 16.35431 | 37983 ft | 404 kts | 335° |
| 2026-04-25 05:46 | 50.71639 | 16.32452 | 37967 ft | 404 kts | 334° |
| 2026-04-25 05:46 | 50.76986 | 16.29445 | 37981 ft | 404 kts | 335° |
| 2026-04-25 05:47 | 50.82307 | 16.26450 | 37977 ft | 404 kts | 334° |
| 2026-04-25 05:47 | 50.87625 | 16.23447 | 37969 ft | 404 kts | 334° |
| 2026-04-25 05:48 | 50.92959 | 16.20427 | 37973 ft | 404 kts | 334° |
| 2026-04-25 05:48 | 50.98268 | 16.17413 | 37975 ft | 404 kts | 334° |
| 2026-04-25 05:49 | 51.03571 | 16.14395 | 37977 ft | 404 kts | 334° |
| 2026-04-25 05:49 | 51.08883 | 16.11364 | 37973 ft | 405 kts | 334° |
| 2026-04-25 05:50 | 51.14256 | 16.08292 | 37974 ft | 405 kts | 334° |
| 2026-04-25 05:50 | 51.19594 | 16.05233 | 37978 ft | 405 kts | 334° |
| 2026-04-25 05:51 | 51.24919 | 16.02173 | 37976 ft | 405 kts | 334° |
| 2026-04-25 05:51 | 51.30219 | 15.99120 | 37976 ft | 405 kts | 334° |
| 2026-04-25 05:52 | 51.35562 | 15.96034 | 37983 ft | 405 kts | 335° |
| 2026-04-25 05:52 | 51.40922 | 15.92931 | 37984 ft | 405 kts | 335° |
| 2026-04-25 05:53 | 51.46254 | 15.89838 | 37978 ft | 406 kts | 335° |
| 2026-04-25 05:53 | 51.51548 | 15.86757 | 37982 ft | 405 kts | 335° |
| 2026-04-25 05:54 | 51.56874 | 15.83652 | 37978 ft | 405 kts | 334° |
| 2026-04-25 05:54 | 51.64855 | 15.78974 | 37972 ft | 404 kts | 335° |
| 2026-04-25 05:55 | 51.70135 | 15.75874 | 37979 ft | 404 kts | 335° |
| 2026-04-25 05:55 | 51.75507 | 15.72992 | 37971 ft | 406 kts | 337° |
| 2026-04-25 05:56 | 51.80902 | 15.70288 | 37975 ft | 406 kts | 337° |
| 2026-04-25 05:56 | 51.86336 | 15.67557 | 37978 ft | 407 kts | 337° |
| 2026-04-25 05:57 | 51.91787 | 15.64802 | 37979 ft | 406 kts | 337° |
| 2026-04-25 05:57 | 51.97206 | 15.62054 | 37978 ft | 407 kts | 337° |
| 2026-04-25 05:58 | 52.02605 | 15.59311 | 37977 ft | 406 kts | 338° |
| 2026-04-25 05:58 | 52.08026 | 15.56551 | 37977 ft | 406 kts | 337° |
| 2026-04-25 05:59 | 52.13479 | 15.53764 | 37970 ft | 407 kts | 337° |
| 2026-04-25 05:59 | 52.18888 | 15.50992 | 37977 ft | 407 kts | 338° |
| 2026-04-25 06:00 | 52.24320 | 15.48204 | 37964 ft | 407 kts | 338° |
| 2026-04-25 06:00 | 52.29763 | 15.45401 | 37963 ft | 408 kts | 338° |
| 2026-04-25 06:01 | 52.35195 | 15.42599 | 37965 ft | 407 kts | 338° |
| 2026-04-25 06:01 | 52.40624 | 15.39788 | 37956 ft | 407 kts | 338° |
| 2026-04-25 06:02 | 52.46016 | 15.36989 | 37949 ft | 408 kts | 338° |
| 2026-04-25 06:02 | 52.51479 | 15.34151 | 37957 ft | 409 kts | 337° |
| 2026-04-25 06:03 | 52.56979 | 15.31280 | 37956 ft | 409 kts | 337° |
| 2026-04-25 06:03 | 52.62406 | 15.28441 | 37952 ft | 410 kts | 338° |
| 2026-04-25 06:04 | 52.67878 | 15.25573 | 37954 ft | 410 kts | 338° |
| 2026-04-25 06:04 | 52.73351 | 15.22696 | 37947 ft | 411 kts | 338° |
| 2026-04-25 06:05 | 52.78854 | 15.19796 | 37943 ft | 411 kts | 338° |
| 2026-04-25 06:05 | 52.84335 | 15.16898 | 37940 ft | 412 kts | 338° |
| 2026-04-25 06:06 | 52.89790 | 15.14007 | 37933 ft | 412 kts | 338° |
| 2026-04-25 06:06 | 52.95301 | 15.11079 | 37932 ft | 413 kts | 338° |
| 2026-04-25 06:07 | 53.00824 | 15.08135 | 37927 ft | 413 kts | 339° |
| 2026-04-25 06:07 | 53.06323 | 15.05200 | 37922 ft | 412 kts | 339° |
| 2026-04-25 06:08 | 53.11821 | 15.02258 | 37917 ft | 412 kts | 338° |
| 2026-04-25 06:08 | 53.17314 | 14.99306 | 37921 ft | 413 kts | 338° |
| 2026-04-25 06:09 | 53.22784 | 14.96357 | 37915 ft | 413 kts | 338° |
| 2026-04-25 06:09 | 53.28282 | 14.93385 | 37913 ft | 413 kts | 338° |
| 2026-04-25 06:10 | 53.33592 | 14.89960 | 37913 ft | 408 kts | 332° |
| 2026-04-25 06:10 | 53.38565 | 14.85394 | 37913 ft | 405 kts | 324° |
| 2026-04-25 06:11 | 53.43116 | 14.79773 | 37917 ft | 403 kts | 317° |
| 2026-04-25 06:11 | 53.47251 | 14.73428 | 37900 ft | 402 kts | 315° |
| 2026-04-25 06:12 | 53.51342 | 14.66948 | 37903 ft | 403 kts | 315° |
| 2026-04-25 06:12 | 53.55434 | 14.60445 | 37905 ft | 403 kts | 315° |
| 2026-04-25 06:13 | 53.59489 | 14.53986 | 37908 ft | 402 kts | 315° |
| 2026-04-25 06:14 | 53.65569 | 14.44270 | 37894 ft | 401 kts | 315° |
| 2026-04-25 06:14 | 53.69629 | 14.37754 | 37882 ft | 401 kts | 315° |
| 2026-04-25 06:15 | 53.73697 | 14.31206 | 37887 ft | 400 kts | 314° |
| 2026-04-25 06:15 | 53.77736 | 14.24725 | 37894 ft | 401 kts | 314° |
| 2026-04-25 06:16 | 53.81824 | 14.18248 | 37889 ft | 400 kts | 314° |
| 2026-04-25 06:16 | 53.85894 | 14.11768 | 37891 ft | 399 kts | 314° |
| 2026-04-25 06:17 | 53.89929 | 14.05319 | 37896 ft | 400 kts | 314° |
| 2026-04-25 06:17 | 53.93990 | 13.98806 | 37893 ft | 399 kts | 314° |
| 2026-04-25 06:18 | 53.98011 | 13.92348 | 37889 ft | 399 kts | 314° |
| 2026-04-25 06:18 | 54.02036 | 13.85860 | 37882 ft | 399 kts | 314° |
| 2026-04-25 06:19 | 54.06084 | 13.79309 | 37883 ft | 399 kts | 314° |
| 2026-04-25 06:19 | 54.10082 | 13.72827 | 37882 ft | 399 kts | 314° |
| 2026-04-25 06:20 | 54.14128 | 13.66196 | 37888 ft | 399 kts | 314° |
| 2026-04-25 06:20 | 54.18123 | 13.59615 | 37881 ft | 399 kts | 314° |
| 2026-04-25 06:21 | 54.22139 | 13.53049 | 37873 ft | 399 kts | 315° |
| 2026-04-25 06:21 | 54.26156 | 13.46519 | 37613 ft | 402 kts | 315° |
| 2026-04-25 06:21 | 54.28171 | 13.43228 | 37009 ft | 403 kts | 314° |
| 2026-04-25 06:22 | 54.30194 | 13.39920 | 36420 ft | 403 kts | 315° |
| 2026-04-25 06:22 | 54.32211 | 13.36617 | 35776 ft | 406 kts | 315° |
| 2026-04-25 06:22 | 54.34272 | 13.33225 | 35077 ft | 409 kts | 314° |
| 2026-04-25 06:22 | 54.36340 | 13.29805 | 34309 ft | 411 kts | 314° |
| 2026-04-25 06:23 | 54.38387 | 13.26407 | 33551 ft | 412 kts | 314° |
| 2026-04-25 06:23 | 54.40440 | 13.22996 | 32807 ft | 412 kts | 314° |
| 2026-04-25 06:23 | 54.42500 | 13.19569 | 32067 ft | 412 kts | 314° |
| 2026-04-25 06:23 | 54.44539 | 13.16174 | 31339 ft | 412 kts | 314° |
| 2026-04-25 06:24 | 54.46612 | 13.12718 | 30594 ft | 412 kts | 314° |
| 2026-04-25 06:24 | 54.48633 | 13.09354 | 29839 ft | 412 kts | 314° |
| 2026-04-25 06:24 | 54.50690 | 13.05923 | 29067 ft | 412 kts | 314° |
| 2026-04-25 06:24 | 54.52734 | 13.02506 | 28287 ft | 412 kts | 314° |
| 2026-04-25 06:25 | 54.54772 | 12.99094 | 27494 ft | 412 kts | 314° |
| 2026-04-25 06:25 | 54.56806 | 12.95684 | 26748 ft | 411 kts | 314° |
| 2026-04-25 06:25 | 54.58822 | 12.92299 | 26239 ft | 404 kts | 314° |
| 2026-04-25 06:25 | 54.60817 | 12.88943 | 25731 ft | 399 kts | 314° |
| 2026-04-25 06:26 | 54.62789 | 12.85616 | 25210 ft | 394 kts | 315° |
| 2026-04-25 06:26 | 54.64720 | 12.82354 | 24691 ft | 390 kts | 315° |
| 2026-04-25 06:26 | 54.66654 | 12.79085 | 24169 ft | 386 kts | 315° |
| 2026-04-25 06:26 | 54.68529 | 12.75908 | 23657 ft | 383 kts | 315° |
| 2026-04-25 06:27 | 54.70438 | 12.72673 | 23134 ft | 380 kts | 315° |
| 2026-04-25 06:27 | 54.72306 | 12.69505 | 22619 ft | 377 kts | 315° |
| 2026-04-25 06:27 | 54.74161 | 12.66351 | 22113 ft | 373 kts | 314° |
| 2026-04-25 06:27 | 54.75996 | 12.63225 | 21597 ft | 370 kts | 314° |
| 2026-04-25 06:28 | 54.77813 | 12.60127 | 21083 ft | 368 kts | 314° |
| 2026-04-25 06:28 | 54.79613 | 12.57058 | 20588 ft | 365 kts | 314° |
| 2026-04-25 06:28 | 54.81411 | 12.53988 | 20085 ft | 362 kts | 314° |
| 2026-04-25 06:28 | 54.83206 | 12.50915 | 19574 ft | 359 kts | 314° |
| 2026-04-25 06:29 | 54.84957 | 12.47913 | 19073 ft | 356 kts | 314° |
| 2026-04-25 06:29 | 54.86728 | 12.44871 | 18554 ft | 354 kts | 314° |
| 2026-04-25 06:29 | 54.88458 | 12.41898 | 18046 ft | 352 kts | 314° |
| 2026-04-25 06:29 | 54.90183 | 12.38931 | 17540 ft | 349 kts | 314° |
| 2026-04-25 06:30 | 54.92125 | 12.36418 | 17009 ft | 352 kts | 330° |
| 2026-04-25 06:30 | 54.94479 | 12.35187 | 16489 ft | 358 kts | 348° |
| 2026-04-25 06:30 | 54.96984 | 12.35369 | 15972 ft | 367 kts | 6° |
| 2026-04-25 06:30 | 54.99383 | 12.37034 | 15451 ft | 379 kts | 24° |
| 2026-04-25 06:31 | 55.01575 | 12.39550 | 14953 ft | 379 kts | 27° |
| 2026-04-25 06:31 | 55.03749 | 12.42099 | 14441 ft | 376 kts | 27° |
| 2026-04-25 06:31 | 55.05883 | 12.44602 | 13946 ft | 373 kts | 27° |
| 2026-04-25 06:31 | 55.08042 | 12.47134 | 13448 ft | 371 kts | 26° |
| 2026-04-25 06:32 | 55.10161 | 12.49615 | 12952 ft | 368 kts | 27° |
| 2026-04-25 06:32 | 55.12279 | 12.52096 | 12491 ft | 364 kts | 26° |
| 2026-04-25 06:32 | 55.14343 | 12.54524 | 12240 ft | 353 kts | 26° |
| 2026-04-25 06:32 | 55.16343 | 12.56885 | 12092 ft | 339 kts | 26° |
| 2026-04-25 06:33 | 55.18260 | 12.59149 | 11936 ft | 327 kts | 26° |
| 2026-04-25 06:33 | 55.20118 | 12.61341 | 11783 ft | 315 kts | 25° |
| 2026-04-25 06:33 | 55.21887 | 12.63415 | 11628 ft | 302 kts | 23° |
| 2026-04-25 06:33 | 55.23676 | 12.65110 | 11475 ft | 285 kts | 15° |
| 2026-04-25 06:34 | 55.25502 | 12.66326 | 11095 ft | 279 kts | 9° |
| 2026-04-25 06:34 | 55.27339 | 12.67363 | 10732 ft | 276 kts | 8° |
| 2026-04-25 06:34 | 55.29158 | 12.68371 | 10377 ft | 274 kts | 8° |
| 2026-04-25 06:34 | 55.30976 | 12.69389 | 10009 ft | 272 kts | 9° |
| 2026-04-25 06:35 | 55.32761 | 12.70395 | 9661 ft | 270 kts | 9° |
| 2026-04-25 06:35 | 55.34542 | 12.71405 | 9310 ft | 268 kts | 9° |
| 2026-04-25 06:35 | 55.36310 | 12.72412 | 9011 ft | 265 kts | 9° |
| 2026-04-25 06:35 | 55.38061 | 12.73409 | 8948 ft | 267 kts | 9° |
| 2026-04-25 06:36 | 55.39831 | 12.74419 | 8956 ft | 267 kts | 9° |
| 2026-04-25 06:36 | 55.41606 | 12.75435 | 8955 ft | 268 kts | 9° |
| 2026-04-25 06:36 | 55.43372 | 12.76446 | 8868 ft | 269 kts | 9° |
| 2026-04-25 06:36 | 55.45166 | 12.77473 | 8456 ft | 270 kts | 9° |
| 2026-04-25 06:37 | 55.46929 | 12.78487 | 8083 ft | 267 kts | 9° |
| 2026-04-25 06:37 | 55.48704 | 12.79509 | 7724 ft | 265 kts | 9° |
| 2026-04-25 06:37 | 55.50428 | 12.80505 | 7387 ft | 262 kts | 9° |
| 2026-04-25 06:37 | 55.52149 | 12.81497 | 7050 ft | 259 kts | 9° |
| 2026-04-25 06:38 | 55.53868 | 12.82488 | 6716 ft | 256 kts | 10° |
| 2026-04-25 06:38 | 55.55547 | 12.83476 | 6387 ft | 254 kts | 12° |
| 2026-04-25 06:38 | 55.57192 | 12.84610 | 6055 ft | 253 kts | 14° |
| 2026-04-25 06:38 | 55.58801 | 12.85763 | 5733 ft | 251 kts | 14° |
| 2026-04-25 06:39 | 55.60417 | 12.86927 | 5407 ft | 249 kts | 14° |
| 2026-04-25 06:39 | 55.62011 | 12.88148 | 5085 ft | 250 kts | 20° |
| 2026-04-25 06:39 | 55.63490 | 12.89815 | 4972 ft | 259 kts | 30° |
| 2026-04-25 06:39 | 55.64895 | 12.91901 | 4972 ft | 263 kts | 33° |
| 2026-04-25 06:40 | 55.66274 | 12.94062 | 4963 ft | 264 kts | 33° |
| 2026-04-25 06:40 | 55.67631 | 12.96205 | 4904 ft | 261 kts | 33° |
| 2026-04-25 06:40 | 55.68992 | 12.98356 | 4619 ft | 257 kts | 33° |
| 2026-04-25 06:40 | 55.70306 | 13.00400 | 4231 ft | 247 kts | 30° |
| 2026-04-25 06:41 | 55.71771 | 13.01528 | 3955 ft | 217 kts | 354° |
| 2026-04-25 06:41 | 55.73129 | 13.00882 | 3920 ft | 200 kts | 325° |
| 2026-04-25 06:41 | 55.74137 | 12.99196 | 3937 ft | 200 kts | 310° |
| 2026-04-25 06:41 | 55.75040 | 12.97323 | 3938 ft | 200 kts | 311° |
| 2026-04-25 06:42 | 55.75968 | 12.95454 | 3719 ft | 202 kts | 311° |
| 2026-04-25 06:42 | 55.76833 | 12.93528 | 3371 ft | 203 kts | 299° |
| 2026-04-25 06:42 | 55.77083 | 12.91067 | 3028 ft | 211 kts | 268° |
| 2026-04-25 06:42 | 55.76525 | 12.88637 | 2712 ft | 224 kts | 238° |
| 2026-04-25 06:43 | 55.75363 | 12.86704 | 2481 ft | 224 kts | 229° |
| 2026-04-25 06:43 | 55.74196 | 12.84891 | 2435 ft | 224 kts | 230° |
| 2026-04-25 06:43 | 55.73033 | 12.83049 | 2448 ft | 221 kts | 231° |
| 2026-04-25 06:43 | 55.71919 | 12.81285 | 2415 ft | 211 kts | 231° |
| 2026-04-25 06:44 | 55.70821 | 12.79567 | 2206 ft | 210 kts | 230° |
| 2026-04-25 06:44 | 55.69722 | 12.77868 | 1917 ft | 209 kts | 230° |
| 2026-04-25 06:44 | 55.68639 | 12.76202 | 1691 ft | 203 kts | 230° |
| 2026-04-25 06:44 | 55.67605 | 12.74612 | 1438 ft | 196 kts | 230° |
| 2026-04-25 06:45 | 55.66583 | 12.73029 | 1132 ft | 191 kts | 229° |
| 2026-04-25 06:45 | 55.65612 | 12.71528 | 894 ft | 180 kts | 229° |
| 2026-04-25 06:45 | 55.64708 | 12.70135 | 625 ft | 164 kts | 229° |
| 2026-04-25 06:45 | 55.63880 | 12.68853 | 398 ft | 150 kts | 229° |
| 2026-04-25 06:46 | 55.63126 | 12.67684 | 192 ft | 139 kts | 229° |
| 2026-04-25 06:46 | 55.62405 | 12.66562 | 45 ft | 137 kts | 227° |
| 2026-04-25 06:46 | 55.61730 | 12.65475 | 20 ft | 118 kts | 225° |
| 2026-04-25 06:46 | 55.61287 | 12.64742 | 24 ft | 46 kts | 243° |
| 2026-04-25 06:47 | 55.61223 | 12.64473 | 24 ft | 13 kts | 252° |
| 2026-04-25 06:47 | 55.61220 | 12.64456 | 24 ft | 0 kts | 252° |
| 2026-04-25 06:47 | 55.61206 | 12.64377 | 24 ft | 14 kts | 253° |
| 2026-04-25 06:47 | 55.61183 | 12.64207 | 23 ft | 14 kts | 279° |
| 2026-04-25 06:48 | 55.61253 | 12.64105 | 23 ft | 14 kts | 5° |
| 2026-04-25 06:48 | 55.61340 | 12.64181 | 23 ft | 14 kts | 33° |
| 2026-04-25 06:48 | 55.61434 | 12.64288 | 23 ft | 17 kts | 31° |
| 2026-04-25 06:48 | 55.61546 | 12.64415 | 22 ft | 20 kts | 34° |
| 2026-04-25 06:49 | 55.61675 | 12.64565 | 22 ft | 23 kts | 34° |
| 2026-04-25 06:49 | 55.61819 | 12.64729 | 22 ft | 25 kts | 31° |
| 2026-04-25 06:49 | 55.61975 | 12.64908 | 21 ft | 27 kts | 34° |
| 2026-04-25 06:49 | 55.62121 | 12.65080 | 20 ft | 18 kts | 33° |
| 2026-04-25 06:50 | 55.62231 | 12.65184 | 20 ft | 17 kts | 5° |
| 2026-04-25 06:50 | 55.62349 | 12.65203 | 19 ft | 16 kts | 359° |
| 2026-04-25 06:50 | 55.62420 | 12.65193 | 19 ft | 6 kts | 332° |
| 2026-04-25 06:50 | 55.62431 | 12.65125 | 20 ft | 6 kts | 265° |
| 2026-04-25 06:51 | 55.62430 | 12.65055 | 20 ft | 0 kts | 268° |